Wetterdaten: Freitag, 24.12.2010
Datum Zeit Temp. A. Feuchte A. Luftdruck Regen Wind Richtung Richtung Sonnenschein UV Solar Windben
24.12.2010 00:00 -0,2 C 92 % 1002,2 hPa 0,0 mm 3,2 km/h (1 Bft) N 360 0 min 0 UV-I 0 W/m 9,7 km/h (2 Bft)
24.12.2010 00:10 -0,3 C 92 % 1002,1 hPa 0,0 mm 4,8 km/h (1 Bft) N 360 0 min 0 UV-I 0 W/m 9,7 km/h (2 Bft)
24.12.2010 00:20 -0,4 C 92 % 1002,4 hPa 0,0 mm 3,2 km/h (1 Bft) N-NO 22 0 min 0 UV-I 0 W/m 9,7 km/h (2 Bft)
24.12.2010 00:30 -0,5 C 92 % 1002,2 hPa 0,0 mm 3,2 km/h (1 Bft) N 360 0 min 0 UV-I 0 W/m 9,7 km/h (2 Bft)
24.12.2010 00:40 -0,6 C 92 % 1002,0 hPa 0,0 mm 4,8 km/h (1 Bft) N 360 0 min 0 UV-I 0 W/m 11,3 km/h (2 Bft)
24.12.2010 00:50 -0,6 C 92 % 1001,9 hPa 0,0 mm 4,8 km/h (1 Bft) N-NO 22 0 min 0 UV-I 0 W/m 16,1 km/h (3 Bft)
24.12.2010 01:00 -0,7 C 92 % 1002,1 hPa 0,0 mm 1,6 km/h (1 Bft) N 360 0 min 0 UV-I 0 W/m 9,7 km/h (2 Bft)
24.12.2010 01:10 -0,7 C 92 % 1002,2 hPa 0,3 mm 3,2 km/h (1 Bft) N 360 0 min 0 UV-I 0 W/m 11,3 km/h (2 Bft)
24.12.2010 01:20 -0,7 C 92 % 1002,1 hPa 0,0 mm 3,2 km/h (1 Bft) N 360 0 min 0 UV-I 0 W/m 8,0 km/h (2 Bft)
24.12.2010 01:30 -0,7 C 92 % 1002,3 hPa 0,0 mm 1,6 km/h (1 Bft) N 360 0 min 0 UV-I 0 W/m 6,4 km/h (2 Bft)
24.12.2010 01:40 -0,8 C 92 % 1002,2 hPa 0,0 mm 1,6 km/h (1 Bft) N-NO 22 0 min 0 UV-I 0 W/m 8,0 km/h (2 Bft)
24.12.2010 01:50 -0,8 C 92 % 1002,1 hPa 0,0 mm 3,2 km/h (1 Bft) N-NO 22 0 min 0 UV-I 0 W/m 9,7 km/h (2 Bft)
24.12.2010 02:00 -0,8 C 92 % 1002,1 hPa 0,0 mm 3,2 km/h (1 Bft) N 360 0 min 0 UV-I 0 W/m 11,3 km/h (2 Bft)
24.12.2010 02:10 -0,8 C 92 % 1002,3 hPa 0,0 mm 3,2 km/h (1 Bft) N-NO 22 0 min 0 UV-I 0 W/m 9,7 km/h (2 Bft)
24.12.2010 02:20 -0,8 C 92 % 1002,3 hPa 0,0 mm 3,2 km/h (1 Bft) N-NO 22 0 min 0 UV-I 0 W/m 11,3 km/h (2 Bft)
24.12.2010 02:30 -0,9 C 92 % 1002,5 hPa 0,0 mm 3,2 km/h (1 Bft) N 360 0 min 0 UV-I 0 W/m 11,3 km/h (2 Bft)
24.12.2010 02:40 -0,9 C 92 % 1002,6 hPa 0,0 mm 1,6 km/h (1 Bft) N-NO 22 0 min 0 UV-I 0 W/m 9,7 km/h (2 Bft)
24.12.2010 02:50 -0,9 C 92 % 1002,7 hPa 0,0 mm 3,2 km/h (1 Bft) N-NO 22 0 min 0 UV-I 0 W/m 9,7 km/h (2 Bft)
24.12.2010 03:00 -0,9 C 92 % 1002,8 hPa 0,0 mm 1,6 km/h (1 Bft) N 360 0 min 0 UV-I 0 W/m 8,0 km/h (2 Bft)
24.12.2010 03:10 -0,9 C 92 % 1002,7 hPa 0,0 mm 3,2 km/h (1 Bft) N 360 0 min 0 UV-I 0 W/m 8,0 km/h (2 Bft)
24.12.2010 03:20 -0,9 C 92 % 1002,8 hPa 0,0 mm 3,2 km/h (1 Bft) N 360 0 min 0 UV-I 0 W/m 9,7 km/h (2 Bft)
24.12.2010 03:30 -0,9 C 92 % 1002,9 hPa 0,0 mm 1,6 km/h (1 Bft) N 360 0 min 0 UV-I 0 W/m 6,4 km/h (2 Bft)
24.12.2010 03:40 -0,9 C 92 % 1002,9 hPa 0,0 mm 3,2 km/h (1 Bft) N 360 0 min 0 UV-I 0 W/m 9,7 km/h (2 Bft)
24.12.2010 03:50 -1,0 C 92 % 1002,7 hPa 0,0 mm 3,2 km/h (1 Bft) N-NO 22 0 min 0 UV-I 0 W/m 8,0 km/h (2 Bft)
24.12.2010 04:00 -1,0 C 92 % 1002,5 hPa 0,0 mm 1,6 km/h (1 Bft) N 360 0 min 0 UV-I 0 W/m 4,8 km/h (1 Bft)
24.12.2010 04:10 -1,1 C 92 % 1002,3 hPa 0,0 mm 3,2 km/h (1 Bft) N 360 0 min 0 UV-I 0 W/m 11,3 km/h (2 Bft)
24.12.2010 04:20 -1,1 C 92 % 1002,2 hPa 0,0 mm 4,8 km/h (1 Bft) N 360 0 min 0 UV-I 0 W/m 11,3 km/h (2 Bft)
24.12.2010 04:30 -1,1 C 92 % 1002,2 hPa 0,0 mm 3,2 km/h (1 Bft) N 360 0 min 0 UV-I 0 W/m 11,3 km/h (2 Bft)
24.12.2010 04:40 -1,2 C 92 % 1002,3 hPa 0,0 mm 3,2 km/h (1 Bft) N 360 0 min 0 UV-I 0 W/m 9,7 km/h (2 Bft)
24.12.2010 04:50 -1,2 C 92 % 1002,5 hPa 0,0 mm 3,2 km/h (1 Bft) N-NO 22 0 min 0 UV-I 0 W/m 11,3 km/h (2 Bft)
24.12.2010 05:00 -1,2 C 92 % 1002,7 hPa 0,0 mm 1,6 km/h (1 Bft) N 360 0 min 0 UV-I 0 W/m 9,7 km/h (2 Bft)
24.12.2010 05:10 -1,3 C 92 % 1002,6 hPa 0,0 mm 3,2 km/h (1 Bft) N-NO 22 0 min 0 UV-I 0 W/m 9,7 km/h (2 Bft)
24.12.2010 05:20 -1,3 C 92 % 1002,6 hPa 0,0 mm 3,2 km/h (1 Bft) N-NO 22 0 min 0 UV-I 0 W/m 11,3 km/h (2 Bft)
24.12.2010 05:30 -1,3 C 92 % 1002,6 hPa 0,0 mm 4,8 km/h (1 Bft) N 360 0 min 0 UV-I 0 W/m 16,1 km/h (3 Bft)
24.12.2010 05:40 -1,4 C 92 % 1002,6 hPa 0,0 mm 4,8 km/h (1 Bft) N-NO 22 0 min 0 UV-I 0 W/m 16,1 km/h (3 Bft)
24.12.2010 05:50 -1,4 C 92 % 1002,7 hPa 0,0 mm 8,0 km/h (2 Bft) N 360 0 min 0 UV-I 0 W/m 20,9 km/h (4 Bft)
24.12.2010 06:00 -1,4 C 92 % 1002,8 hPa 0,0 mm 4,8 km/h (1 Bft) N 360 0 min 0 UV-I 0 W/m 11,3 km/h (2 Bft)
24.12.2010 06:10 -1,4 C 92 % 1002,8 hPa 0,0 mm 4,8 km/h (1 Bft) N-NO 22 0 min 0 UV-I 0 W/m 16,1 km/h (3 Bft)
24.12.2010 06:20 -1,4 C 92 % 1002,9 hPa 0,0 mm 4,8 km/h (1 Bft) N-NO 22 0 min 0 UV-I 0 W/m 14,5 km/h (3 Bft)
24.12.2010 06:30 -1,4 C 92 % 1002,8 hPa 0,0 mm 4,8 km/h (1 Bft) N-NO 22 0 min 0 UV-I 0 W/m 14,5 km/h (3 Bft)
24.12.2010 06:40 -1,4 C 92 % 1003,0 hPa 0,0 mm 4,8 km/h (1 Bft) N 360 0 min 0 UV-I 0 W/m 11,3 km/h (2 Bft)
24.12.2010 06:50 -1,4 C 92 % 1003,1 hPa 0,0 mm 4,8 km/h (1 Bft) N 360 0 min 0 UV-I 0 W/m 14,5 km/h (3 Bft)
24.12.2010 07:00 -1,4 C 92 % 1003,4 hPa 0,0 mm 4,8 km/h (1 Bft) N 360 0 min 0 UV-I 0 W/m 16,1 km/h (3 Bft)
24.12.2010 07:10 -1,4 C 92 % 1003,4 hPa 0,0 mm 4,8 km/h (1 Bft) N-NO 22 0 min 0 UV-I 0 W/m 17,7 km/h (3 Bft)
24.12.2010 07:20 -1,4 C 92 % 1003,5 hPa 0,0 mm 4,8 km/h (1 Bft) N 360 0 min 0 UV-I 0 W/m 14,5 km/h (3 Bft)
24.12.2010 07:30 -1,4 C 92 % 1003,7 hPa 0,0 mm 3,2 km/h (1 Bft) N 360 0 min 0 UV-I 0 W/m 12,9 km/h (3 Bft)
24.12.2010 07:40 -1,4 C 92 % 1004,0 hPa 0,0 mm 4,8 km/h (1 Bft) N-NO 22 0 min 0 UV-I 0 W/m 16,1 km/h (3 Bft)
24.12.2010 07:50 -1,4 C 92 % 1004,0 hPa 0,0 mm 4,8 km/h (1 Bft) N-NO 22 0 min 0 UV-I 0 W/m 17,7 km/h (3 Bft)
24.12.2010 08:00 -1,5 C 92 % 1004,0 hPa 0,0 mm 5,0 km/h (1 Bft) N-NO 16 0 min 0 UV-I 0 W/m 14,5 km/h (3 Bft)
24.12.2010 08:10 -1,5 C 92 % 1004,0 hPa 0,0 mm 8,0 km/h (2 Bft) N 360 0 min 0 UV-I 0 W/m 17,7 km/h (3 Bft)
24.12.2010 08:20 -1,5 C 92 % 1004,2 hPa 0,0 mm 4,8 km/h (1 Bft) N-NO 22 0 min 0 UV-I 0 W/m 11,3 km/h (2 Bft)
24.12.2010 08:30 -1,6 C 92 % 1004,4 hPa 0,0 mm 4,8 km/h (1 Bft) N-NO 22 0 min 0 UV-I 0 W/m 14,5 km/h (3 Bft)
24.12.2010 08:40 -1,6 C 92 % 1004,6 hPa 0,0 mm 4,8 km/h (1 Bft) N-NO 22 0 min 0 UV-I 0 W/m 11,3 km/h (2 Bft)
24.12.2010 08:50 -1,6 C 92 % 1004,6 hPa 0,0 mm 3,2 km/h (1 Bft) N 360 0 min 0 UV-I 0 W/m 16,1 km/h (3 Bft)
24.12.2010 09:00 -1,6 C 92 % 1004,6 hPa 0,0 mm 8,0 km/h (2 Bft) N-NO 22 0 min 0 UV-I 0 W/m 19,3 km/h (3 Bft)
24.12.2010 09:10 -1,7 C 92 % 1004,7 hPa 0,0 mm 6,4 km/h (2 Bft) N-NO 22 0 min 0 UV-I 5 W/m 16,1 km/h (3 Bft)
24.12.2010 09:20 -1,7 C 92 % 1004,7 hPa 0,0 mm 6,4 km/h (2 Bft) N-NO 22 0 min 0 UV-I 9 W/m 16,1 km/h (3 Bft)
24.12.2010 09:30 -1,7 C 92 % 1004,8 hPa 0,0 mm 6,4 km/h (2 Bft) N-NO 22 0 min 0 UV-I 11 W/m 17,7 km/h (3 Bft)
24.12.2010 09:40 -1,7 C 92 % 1004,8 hPa 0,0 mm 6,4 km/h (2 Bft) N-NO 22 0 min 0 UV-I 14 W/m 14,5 km/h (3 Bft)
24.12.2010 09:50 -1,7 C 92 % 1004,9 hPa 0,0 mm 6,4 km/h (2 Bft) N-NO 22 0 min 0 UV-I 18 W/m 16,1 km/h (3 Bft)
24.12.2010 10:00 -1,7 C 92 % 1005,2 hPa 0,0 mm 6,4 km/h (2 Bft) N-NO 22 0 min 0 UV-I 19 W/m 19,3 km/h (3 Bft)
24.12.2010 10:10 -1,7 C 91 % 1005,4 hPa 0,0 mm 4,8 km/h (1 Bft) N 360 0 min 0 UV-I 21 W/m 19,3 km/h (3 Bft)
24.12.2010 10:20 -1,7 C 91 % 1005,4 hPa 0,0 mm 4,8 km/h (1 Bft) N-NO 22 0 min 0 UV-I 21 W/m 16,1 km/h (3 Bft)
24.12.2010 10:30 -1,7 C 91 % 1005,6 hPa 0,0 mm 4,8 km/h (1 Bft) N-NO 22 0 min 0 UV-I 23 W/m 19,3 km/h (3 Bft)
24.12.2010 10:40 -1,8 C 91 % 1005,7 hPa 0,0 mm 6,4 km/h (2 Bft) N 360 0 min 0 UV-I 26 W/m 17,7 km/h (3 Bft)
24.12.2010 10:50 -1,7 C 91 % 1005,9 hPa 0,0 mm 4,8 km/h (1 Bft) N 360 0 min 0 UV-I 25 W/m 14,5 km/h (3 Bft)
24.12.2010 11:00 -1,7 C 91 % 1005,9 hPa 0,0 mm 6,4 km/h (2 Bft) N-NO 22 0 min 0 UV-I 23 W/m 17,7 km/h (3 Bft)
24.12.2010 11:10 -1,8 C 91 % 1006,0 hPa 0,0 mm 6,4 km/h (2 Bft) N-NO 22 0 min 0 UV-I 23 W/m 19,3 km/h (3 Bft)
24.12.2010 11:20 -1,8 C 91 % 1006,1 hPa 0,0 mm 4,8 km/h (1 Bft) N-NO 22 0 min 0 UV-I 23 W/m 11,3 km/h (2 Bft)
24.12.2010 11:30 -1,8 C 91 % 1006,2 hPa 0,0 mm 4,8 km/h (1 Bft) N 360 0 min 0 UV-I 25 W/m 17,7 km/h (3 Bft)
24.12.2010 11:40 -1,8 C 91 % 1006,3 hPa 0,0 mm 4,8 km/h (1 Bft) N 360 0 min 0 UV-I 23 W/m 16,1 km/h (3 Bft)
24.12.2010 11:50 -1,8 C 91 % 1006,3 hPa 0,0 mm 4,6 km/h (1 Bft) N 10 0 min 0 UV-I 23 W/m 8,0 km/h (2 Bft)
24.12.2010 12:00 -1,9 C 91 % 1006,4 hPa 0,0 mm 7,1 km/h (2 Bft) N-NO 13 0 min 0 UV-I 25 W/m 19,3 km/h (3 Bft)
24.12.2010 12:10 -1,8 C 91 % 1006,4 hPa 0,0 mm 6,5 km/h (2 Bft) N-NO 14 0 min 0 UV-I 32 W/m 17,7 km/h (3 Bft)
24.12.2010 12:20 -1,8 C 91 % 1006,5 hPa 0,0 mm 4,6 km/h (1 Bft) N-NO 20 0 min 0 UV-I 36 W/m 14,5 km/h (3 Bft)
24.12.2010 12:30 -1,8 C 91 % 1006,5 hPa 0,0 mm 4,8 km/h (1 Bft) N-NO 22 0 min 0 UV-I 42 W/m 16,1 km/h (3 Bft)
24.12.2010 12:40 -1,8 C 91 % 1006,5 hPa 0,0 mm 5,7 km/h (1 Bft) N-NO 19 0 min 0 UV-I 42 W/m 16,1 km/h (3 Bft)
24.12.2010 12:50 -1,8 C 91 % 1006,5 hPa 0,0 mm 7,1 km/h (2 Bft) N-NO 14 0 min 0 UV-I 48 W/m 19,3 km/h (3 Bft)
24.12.2010 13:00 -1,8 C 91 % 1006,5 hPa 0,0 mm 5,8 km/h (2 Bft) N-NW 346 0 min 0 UV-I 50 W/m 16,1 km/h (3 Bft)
24.12.2010 13:10 -1,8 C 91 % 1006,6 hPa 0,0 mm 6,2 km/h (2 Bft) N 11 0 min 0 UV-I 49 W/m 19,3 km/h (3 Bft)
24.12.2010 13:20 -1,8 C 90 % 1006,7 hPa 0,0 mm 6,3 km/h (2 Bft) N 360 0 min 0 UV-I 48 W/m 19,3 km/h (3 Bft)
24.12.2010 13:30 -1,9 C 90 % 1006,6 hPa 0,0 mm 6,2 km/h (2 Bft) N 360 0 min 0 UV-I 45 W/m 17,7 km/h (3 Bft)
24.12.2010 13:40 -1,9 C 90 % 1006,6 hPa 0,0 mm 6,7 km/h (2 Bft) N 355 0 min 0 UV-I 42 W/m 17,7 km/h (3 Bft)
24.12.2010 13:50 -1,9 C 90 % 1006,8 hPa 0,3 mm 5,0 km/h (1 Bft) N-NO 29 0 min 0 UV-I 36 W/m 19,3 km/h (3 Bft)
24.12.2010 14:00 -1,9 C 90 % 1006,7 hPa 0,0 mm 5,8 km/h (2 Bft) N-NO 20 0 min 0 UV-I 34 W/m 17,7 km/h (3 Bft)
24.12.2010 14:10 -2,0 C 90 % 1006,9 hPa 0,0 mm 6,0 km/h (2 Bft) N 11 0 min 0 UV-I 37 W/m 25,7 km/h (4 Bft)
24.12.2010 14:20 -2,0 C 90 % 1006,9 hPa 0,3 mm 5,3 km/h (1 Bft) N 10 0 min 0 UV-I 38 W/m 16,1 km/h (3 Bft)
24.12.2010 14:30 -2,0 C 90 % 1006,9 hPa 0,0 mm 6,4 km/h (2 Bft) N-NO 18 0 min 0 UV-I 33 W/m 17,7 km/h (3 Bft)
24.12.2010 14:40 -2,1 C 90 % 1006,9 hPa 0,0 mm 7,7 km/h (2 Bft) N 5 0 min 0 UV-I 27 W/m 19,3 km/h (3 Bft)
24.12.2010 14:50 -2,2 C 89 % 1007,0 hPa 0,0 mm 7,2 km/h (2 Bft) N 360 0 min 0 UV-I 18 W/m 20,9 km/h (4 Bft)
24.12.2010 15:00 -2,2 C 89 % 1007,1 hPa 0,0 mm 6,8 km/h (2 Bft) NO 40 0 min 0 UV-I 13 W/m 19,3 km/h (3 Bft)
24.12.2010 15:10 -2,3 C 89 % 1007,1 hPa 0,0 mm 8,4 km/h (2 Bft) N 11 0 min 0 UV-I 10 W/m 24,1 km/h (4 Bft)
24.12.2010 15:20 -2,3 C 89 % 1007,2 hPa 0,0 mm 6,2 km/h (2 Bft) N 10 0 min 0 UV-I 7 W/m 19,3 km/h (3 Bft)
24.12.2010 15:30 -2,3 C 89 % 1007,3 hPa 0,0 mm 5,6 km/h (1 Bft) N-NO 28 0 min 0 UV-I 5 W/m 16,1 km/h (3 Bft)
24.12.2010 15:40 -2,4 C 89 % 1007,5 hPa 0,0 mm 6,2 km/h (2 Bft) N-NO 29 0 min 0 UV-I 0 W/m 16,1 km/h (3 Bft)
24.12.2010 15:50 -2,4 C 89 % 1007,7 hPa 0,0 mm 8,0 km/h (2 Bft) N-NO 22 0 min 0 UV-I 0 W/m 19,3 km/h (3 Bft)
24.12.2010 16:00 -2,4 C 89 % 1007,8 hPa 0,0 mm 7,7 km/h (2 Bft) N-NO 28 0 min 0 UV-I 0 W/m 17,7 km/h (3 Bft)
24.12.2010 16:10 -2,5 C 89 % 1008,1 hPa 0,0 mm 6,4 km/h (2 Bft) N-NO 22 0 min 0 UV-I 0 W/m 19,3 km/h (3 Bft)
24.12.2010 16:20 -2,5 C 89 % 1008,2 hPa 0,0 mm 4,8 km/h (1 Bft) N-NO 22 0 min 0 UV-I 0 W/m 16,1 km/h (3 Bft)
24.12.2010 16:30 -2,5 C 89 % 1008,2 hPa 0,0 mm 4,8 km/h (1 Bft) N 360 0 min 0 UV-I 0 W/m 14,5 km/h (3 Bft)
24.12.2010 16:40 -2,6 C 89 % 1008,4 hPa 0,0 mm 6,4 km/h (2 Bft) N-NO 22 0 min 0 UV-I 0 W/m 16,1 km/h (3 Bft)
24.12.2010 16:50 -2,6 C 89 % 1008,5 hPa 0,0 mm 4,8 km/h (1 Bft) N-NO 22 0 min 0 UV-I 0 W/m 16,1 km/h (3 Bft)
24.12.2010 17:00 -2,6 C 89 % 1008,7 hPa 0,0 mm 6,4 km/h (2 Bft) N-NO 22 0 min 0 UV-I 0 W/m 19,3 km/h (3 Bft)
24.12.2010 17:10 -2,7 C 89 % 1008,9 hPa 0,0 mm 6,4 km/h (2 Bft) N-NO 22 0 min 0 UV-I 0 W/m 22,5 km/h (4 Bft)
24.12.2010 17:20 -2,7 C 89 % 1009,0 hPa 0,0 mm 6,4 km/h (2 Bft) N-NO 22 0 min 0 UV-I 0 W/m 22,5 km/h (4 Bft)
24.12.2010 17:30 -2,7 C 89 % 1009,1 hPa 0,0 mm 6,4 km/h (2 Bft) N-NO 22 0 min 0 UV-I 0 W/m 19,3 km/h (3 Bft)
24.12.2010 17:40 -2,8 C 89 % 1009,2 hPa 0,0 mm 3,2 km/h (1 Bft) N 360 0 min 0 UV-I 0 W/m 14,5 km/h (3 Bft)
24.12.2010 17:50 -2,8 C 89 % 1009,2 hPa 0,0 mm 3,2 km/h (1 Bft) N 360 0 min 0 UV-I 0 W/m 11,3 km/h (2 Bft)
24.12.2010 18:00 -2,8 C 89 % 1009,3 hPa 0,0 mm 4,8 km/h (1 Bft) N 360 0 min 0 UV-I 0 W/m 12,9 km/h (3 Bft)
24.12.2010 18:10 -2,9 C 89 % 1009,4 hPa 0,0 mm 3,2 km/h (1 Bft) N-NO 22 0 min 0 UV-I 0 W/m 11,3 km/h (2 Bft)
24.12.2010 18:20 -2,9 C 89 % 1009,5 hPa 0,0 mm 4,8 km/h (1 Bft) N-NO 22 0 min 0 UV-I 0 W/m 16,1 km/h (3 Bft)
24.12.2010 18:30 -2,9 C 89 % 1009,5 hPa 0,0 mm 4,8 km/h (1 Bft) N 360 0 min 0 UV-I 0 W/m 16,1 km/h (3 Bft)
24.12.2010 18:40 -3,0 C 89 % 1009,6 hPa 0,0 mm 4,8 km/h (1 Bft) N-NO 22 0 min 0 UV-I 0 W/m 11,3 km/h (2 Bft)
24.12.2010 18:50 -3,1 C 89 % 1009,7 hPa 0,0 mm 4,8 km/h (1 Bft) N-NO 22 0 min 0 UV-I 0 W/m 16,1 km/h (3 Bft)
24.12.2010 19:00 -3,1 C 89 % 1009,9 hPa 0,0 mm 3,2 km/h (1 Bft) N 360 0 min 0 UV-I 0 W/m 11,3 km/h (2 Bft)
24.12.2010 19:10 -3,2 C 89 % 1010,0 hPa 0,0 mm 4,8 km/h (1 Bft) N-NO 22 0 min 0 UV-I 0 W/m 17,7 km/h (3 Bft)
24.12.2010 19:20 -3,2 C 89 % 1010,1 hPa 0,0 mm 3,2 km/h (1 Bft) N 360 0 min 0 UV-I 0 W/m 14,5 km/h (3 Bft)
24.12.2010 19:30 -3,2 C 89 % 1010,3 hPa 0,0 mm 3,2 km/h (1 Bft) N 360 0 min 0 UV-I 0 W/m 11,3 km/h (2 Bft)
24.12.2010 19:40 -3,2 C 89 % 1010,5 hPa 0,0 mm 3,2 km/h (1 Bft) N-NO 22 0 min 0 UV-I 0 W/m 9,7 km/h (2 Bft)
24.12.2010 19:50 -3,2 C 89 % 1010,7 hPa 0,0 mm 4,8 km/h (1 Bft) N 360 0 min 0 UV-I 0 W/m 14,5 km/h (3 Bft)
24.12.2010 20:00 -3,3 C 89 % 1010,9 hPa 0,0 mm 3,2 km/h (1 Bft) N-NO 22 0 min 0 UV-I 0 W/m 16,1 km/h (3 Bft)
24.12.2010 20:10 -3,3 C 89 % 1010,9 hPa 0,0 mm 3,2 km/h (1 Bft) N 360 0 min 0 UV-I 0 W/m 16,1 km/h (3 Bft)
24.12.2010 20:20 -3,3 C 89 % 1011,1 hPa 0,0 mm 3,2 km/h (1 Bft) N-NO 22 0 min 0 UV-I 0 W/m 12,9 km/h (3 Bft)
24.12.2010 20:30 -3,3 C 90 % 1011,2 hPa 0,3 mm 4,8 km/h (1 Bft) N 360 0 min 0 UV-I 0 W/m 16,1 km/h (3 Bft)
24.12.2010 20:40 -3,3 C 90 % 1011,3 hPa 0,0 mm 4,8 km/h (1 Bft) N-NO 22 0 min 0 UV-I 0 W/m 14,5 km/h (3 Bft)
24.12.2010 20:50 -3,3 C 90 % 1011,4 hPa 0,0 mm 4,8 km/h (1 Bft) N 360 0 min 0 UV-I 0 W/m 16,1 km/h (3 Bft)
24.12.2010 21:00 -3,4 C 90 % 1011,5 hPa 0,0 mm 4,8 km/h (1 Bft) N-NO 22 0 min 0 UV-I 0 W/m 17,7 km/h (3 Bft)
24.12.2010 21:10 -3,4 C 90 % 1011,7 hPa 0,0 mm 6,4 km/h (2 Bft) N 360 0 min 0 UV-I 0 W/m 19,3 km/h (3 Bft)
24.12.2010 21:20 -3,4 C 90 % 1011,8 hPa 0,0 mm 4,8 km/h (1 Bft) N-NO 22 0 min 0 UV-I 0 W/m 14,5 km/h (3 Bft)
24.12.2010 21:30 -3,4 C 90 % 1012,0 hPa 0,0 mm 4,8 km/h (1 Bft) N-NO 22 0 min 0 UV-I 0 W/m 16,1 km/h (3 Bft)
24.12.2010 21:40 -3,5 C 89 % 1012,0 hPa 0,0 mm 4,8 km/h (1 Bft) N 360 0 min 0 UV-I 0 W/m 16,1 km/h (3 Bft)
24.12.2010 21:50 -3,5 C 89 % 1012,2 hPa 0,0 mm 6,4 km/h (2 Bft) N-NO 22 0 min 0 UV-I 0 W/m 17,7 km/h (3 Bft)
24.12.2010 22:00 -3,5 C 89 % 1012,2 hPa 0,0 mm 4,8 km/h (1 Bft) N 360 0 min 0 UV-I 0 W/m 17,7 km/h (3 Bft)
24.12.2010 22:10 -3,6 C 89 % 1012,2 hPa 0,0 mm 4,8 km/h (1 Bft) N-NO 22 0 min 0 UV-I 0 W/m 19,3 km/h (3 Bft)
24.12.2010 22:20 -3,6 C 89 % 1012,2 hPa 0,0 mm 4,8 km/h (1 Bft) N-NO 22 0 min 0 UV-I 0 W/m 16,1 km/h (3 Bft)
24.12.2010 22:30 -3,6 C 89 % 1012,3 hPa 0,0 mm 4,8 km/h (1 Bft) N-NO 22 0 min 0 UV-I 0 W/m 14,5 km/h (3 Bft)
24.12.2010 22:40 -3,6 C 89 % 1012,5 hPa 0,0 mm 3,2 km/h (1 Bft) N-NO 22 0 min 0 UV-I 0 W/m 9,7 km/h (2 Bft)
24.12.2010 22:50 -3,6 C 89 % 1012,6 hPa 0,0 mm 3,2 km/h (1 Bft) N 360 0 min 0 UV-I 0 W/m 16,1 km/h (3 Bft)
24.12.2010 23:00 -3,6 C 89 % 1012,6 hPa 0,0 mm 3,2 km/h (1 Bft) N-NO 22 0 min 0 UV-I 0 W/m 14,5 km/h (3 Bft)
24.12.2010 23:10 -3,6 C 89 % 1012,8 hPa 0,0 mm 1,6 km/h (1 Bft) N-NO 22 0 min 0 UV-I 0 W/m 12,9 km/h (3 Bft)
24.12.2010 23:20 -3,6 C 89 % 1012,8 hPa 0,0 mm 4,8 km/h (1 Bft) N 360 0 min 0 UV-I 0 W/m 11,3 km/h (2 Bft)
24.12.2010 23:30 -3,6 C 89 % 1013,0 hPa 0,0 mm 3,2 km/h (1 Bft) N-NO 22 0 min 0 UV-I 0 W/m 11,3 km/h (2 Bft)
24.12.2010 23:40 -3,6 C 89 % 1013,0 hPa 0,0 mm 4,8 km/h (1 Bft) N-NO 22 0 min 0 UV-I 0 W/m 14,5 km/h (3 Bft)
24.12.2010 23:50 -3,6 C 89 % 1013,1 hPa 0,0 mm 3,2 km/h (1 Bft) N-NO 22 0 min 0 UV-I 0 W/m 14,5 km/h (3 Bft)
_ Min-Zeit 22:00 14:50 00:50 - 01:00 - - - - - 04:00
Minimum _ -3,6 C 89 % 1001,9 hPa - 1,6 km/h (1 Bft) - - - - - 4,8 km/h (1 Bft)
_ Max-Zeit 00:00 00:00 23:50 01:10 15:10 - - 00:00 00:00 13:00 14:10
Maximum _ -0,2 C 92 % 1013,1 hPa 0,3 mm 8,4 km/h
N (2 Bft)
- - 0 min 0 UV-I 50 W/m 25,7 km/h
N (4 Bft)
Durchschnitt _ -2,0 C 91 % 1006,4 hPa #1,0 mm 4,7 km/h (1 Bft) N-NO - #0 min. 0 UV-I 27 W/m 14,7 km/h (3 Bft)